createdAt,value
2023-04-01T00:01:43.667Z,13.63
2023-04-01T00:04:12.605Z,13.25
2023-04-01T00:06:41.860Z,13.25
2023-04-01T00:09:10.512Z,13.10
2023-04-01T00:11:41.198Z,13.50
2023-04-01T00:14:10.465Z,13.52
2023-04-01T00:16:39.603Z,11.38
2023-04-01T00:19:09.198Z,12.38
2023-04-01T00:21:38.170Z,14.35
2023-04-01T00:24:08.392Z,13.90
2023-04-01T00:26:37.056Z,15.23
2023-04-01T00:29:09.569Z,18.98
2023-04-01T00:31:40.385Z,16.60
2023-04-01T00:34:09.020Z,15.77
2023-04-01T00:36:37.562Z,15.90
2023-04-01T00:39:06.153Z,16.83
2023-04-01T00:41:34.915Z,16.42
2023-04-01T00:44:25.149Z,15.77
2023-04-01T00:46:55.707Z,16.10
2023-04-01T00:49:31.266Z,15.13
2023-04-01T00:52:04.222Z,16.23
2023-04-01T00:54:34.677Z,15.40
2023-04-01T00:57:07.880Z,15.15
2023-04-01T00:59:44.601Z,16.85
2023-04-01T01:02:16.001Z,17.77
2023-04-01T01:04:45.277Z,17.77
2023-04-01T01:07:27.453Z,19.38
2023-04-01T01:10:05.991Z,17.08
2023-04-01T01:12:41.431Z,17.80
2023-04-01T01:17:59.252Z,15.13
2023-04-01T01:21:08.969Z,15.23
2023-04-01T01:24:14.873Z,15.20
2023-04-01T01:26:55.068Z,13.55
2023-04-01T01:29:47.634Z,15.13
2023-04-01T01:32:44.872Z,15.93
2023-04-01T01:35:23.959Z,12.20
2023-04-01T01:37:58.583Z,11.35
2023-04-01T01:40:29.878Z,10.70
2023-04-01T01:43:03.208Z,9.45
2023-04-01T01:45:34.696Z,8.90
2023-04-01T01:48:07.281Z,8.75
2023-04-01T01:50:39.124Z,9.13
2023-04-01T01:53:10.016Z,8.90
2023-04-01T01:55:41.588Z,8.70
2023-04-01T01:58:16.007Z,7.80
2023-04-01T02:00:49.232Z,8.65
2023-04-01T02:03:20.812Z,8.38
2023-04-01T02:05:54.157Z,8.95
2023-04-01T02:08:28.884Z,8.23
2023-04-01T02:11:03.340Z,8.95
2023-04-01T02:13:38.667Z,9.30
2023-04-01T02:16:15.025Z,9.23
2023-04-01T02:18:48.824Z,8.93
2023-04-01T02:21:27.444Z,9.48
2023-04-01T02:23:59.002Z,9.60
2023-04-01T02:26:29.011Z,10.20
2023-04-01T02:29:02.096Z,8.73
2023-04-01T02:31:31.876Z,8.80
2023-04-01T02:34:02.209Z,8.65
2023-04-01T02:36:32.530Z,9.88
2023-04-01T02:39:04.296Z,9.27
2023-04-01T02:41:55.970Z,9.15
2023-04-01T02:44:41.946Z,8.30
2023-04-01T02:47:10.934Z,9.05
2023-04-01T02:49:45.698Z,8.85
2023-04-01T02:52:15.852Z,10.57
2023-04-01T02:54:44.784Z,11.20
2023-04-01T02:57:13.538Z,11.38
2023-04-01T02:59:42.114Z,12.07
2023-04-01T03:02:10.861Z,13.00
2023-04-01T03:04:39.815Z,12.05
2023-04-01T03:07:09.532Z,13.93
2023-04-01T03:09:41.113Z,13.20
2023-04-01T03:12:10.944Z,13.23
2023-04-01T03:14:39.567Z,12.30
2023-04-01T03:17:08.581Z,12.98
2023-04-01T03:19:37.021Z,13.10
2023-04-01T03:22:05.630Z,12.75
2023-04-01T03:24:34.777Z,11.93
2023-04-01T03:27:05.048Z,11.90
2023-04-01T03:29:33.578Z,12.55
2023-04-01T03:32:02.041Z,12.40
2023-04-01T03:34:30.979Z,12.88
2023-04-01T03:37:00.496Z,11.68
2023-04-01T03:39:36.146Z,11.82
2023-04-01T03:42:07.760Z,11.80
2023-04-01T03:44:36.822Z,11.32
2023-04-01T03:47:05.573Z,11.80
2023-04-01T03:49:35.304Z,12.15
2023-04-01T03:52:04.173Z,11.50
2023-04-01T03:54:33.242Z,11.38
2023-04-01T03:57:02.248Z,11.18
2023-04-01T03:59:32.493Z,10.38
2023-04-01T04:02:01.812Z,8.55
2023-04-01T04:04:31.240Z,8.13
2023-04-01T04:07:00.600Z,7.65
2023-04-01T04:09:29.607Z,8.45
2023-04-01T04:11:58.472Z,9.20
2023-04-01T04:14:27.412Z,10.35
2023-04-01T04:16:57.399Z,13.52
2023-04-01T04:19:26.313Z,12.93
2023-04-01T04:21:55.869Z,13.13
2023-04-01T04:24:24.685Z,14.70
2023-04-01T04:26:54.096Z,14.52
2023-04-01T04:29:23.997Z,15.05
2023-04-01T04:31:52.613Z,14.82
2023-04-01T04:34:25.787Z,14.45
2023-04-01T04:36:54.647Z,13.05
2023-04-01T04:39:23.232Z,11.85
2023-04-01T04:41:51.675Z,11.25
2023-04-01T04:44:20.330Z,11.93
2023-04-01T04:46:49.293Z,11.02
2023-04-01T04:49:18.301Z,11.68
2023-04-01T04:51:48.384Z,12.15
2023-04-01T04:54:17.217Z,12.57
2023-04-01T04:56:45.970Z,12.48
2023-04-01T04:59:14.787Z,12.80
2023-04-01T05:01:43.400Z,11.57
2023-04-01T05:04:12.147Z,12.68
2023-04-01T05:06:41.082Z,12.40
2023-04-01T05:09:11.086Z,11.93
2023-04-01T05:11:39.973Z,12.15
2023-04-01T05:14:08.815Z,11.45
2023-04-01T05:16:41.152Z,12.73
2023-04-01T05:19:12.370Z,12.55
2023-04-01T05:21:40.779Z,13.07
2023-04-01T05:24:11.893Z,13.05
2023-04-01T05:26:40.522Z,12.13
2023-04-01T05:29:24.219Z,12.00
2023-04-01T05:31:52.801Z,11.70
2023-04-01T05:34:21.805Z,11.50
2023-04-01T05:36:53.318Z,11.07
2023-04-01T05:39:30.638Z,12.38
2023-04-01T05:41:59.218Z,12.13
2023-04-01T05:44:28.008Z,13.52
2023-04-01T05:46:56.698Z,12.68
2023-04-01T05:49:27.609Z,11.23
2023-04-01T05:51:57.662Z,9.27
2023-04-01T05:54:27.795Z,7.85
2023-04-01T05:56:56.265Z,6.30
2023-04-01T05:59:25.151Z,5.00
2023-04-01T06:01:53.863Z,3.17
2023-04-01T06:04:22.973Z,2.80
2023-04-01T06:06:52.636Z,2.67
2023-04-01T06:09:31.532Z,2.55
2023-04-01T06:12:51.377Z,3.00
2023-04-01T06:15:40.339Z,3.40
2023-04-01T06:18:54.376Z,3.38
2023-04-01T06:21:58.365Z,3.75
2023-04-01T06:24:57.677Z,4.38
2023-04-01T06:27:47.076Z,5.72
2023-04-01T06:30:36.641Z,6.53
2023-04-01T06:33:25.848Z,7.13
2023-04-01T06:36:53.291Z,9.43
2023-04-01T06:43:02.122Z,11.60
2023-04-01T06:45:42.429Z,13.43
2023-04-01T06:48:37.405Z,14.68
2023-04-01T06:51:33.538Z,13.48
2023-04-01T06:56:38.962Z,13.40
2023-04-01T06:59:19.634Z,14.23
2023-04-01T07:02:00.812Z,14.95
2023-04-01T07:04:35.524Z,14.88
2023-04-01T07:07:18.153Z,14.60
2023-04-01T07:09:53.628Z,14.23
2023-04-01T07:12:30.361Z,14.57
2023-04-01T07:15:06.236Z,15.50
2023-04-01T07:17:43.034Z,15.07
2023-04-01T07:20:22.091Z,14.85
2023-04-01T07:22:53.786Z,13.85
2023-04-01T07:25:26.995Z,14.45
2023-04-01T07:27:58.632Z,15.05
2023-04-01T07:30:36.138Z,15.30
2023-04-01T07:33:13.716Z,15.10
2023-04-01T07:35:59.840Z,15.32
2023-04-01T07:38:42.677Z,15.57
2023-04-01T07:41:19.745Z,15.95
2023-04-01T07:44:02.223Z,15.70
2023-04-01T07:46:53.093Z,15.57
2023-04-01T07:49:32.075Z,16.55
2023-04-01T07:52:08.743Z,16.85
2023-04-01T07:54:47.570Z,15.90
2023-04-01T07:57:26.076Z,17.38
2023-04-01T08:00:05.382Z,17.70
2023-04-01T08:02:53.882Z,17.25
2023-04-01T08:05:28.985Z,17.10
2023-04-01T08:08:10.566Z,17.65
2023-04-01T08:10:48.628Z,17.77
2023-04-01T08:13:29.593Z,17.30
2023-04-01T08:16:08.404Z,15.10
2023-04-01T08:18:53.279Z,14.10
2023-04-01T08:21:27.169Z,14.27
2023-04-01T08:23:59.575Z,14.00
2023-04-01T08:26:37.134Z,14.45
2023-04-01T08:29:13.123Z,15.23
2023-04-01T08:31:51.162Z,15.85
2023-04-01T08:34:27.297Z,15.23
2023-04-01T08:37:05.206Z,14.68
2023-04-01T08:39:39.992Z,15.82
2023-04-01T08:42:52.630Z,15.93
2023-04-01T08:45:56.108Z,16.23
2023-04-01T08:49:01.437Z,16.95
2023-04-01T08:52:38.944Z,17.85
2023-04-01T08:55:41.236Z,17.80
2023-04-01T08:58:54.905Z,19.27
2023-04-01T09:01:40.777Z,19.75
2023-04-01T09:04:37.014Z,19.70
2023-04-01T09:10:09.136Z,19.55
2023-04-01T09:13:03.695Z,19.50
2023-04-01T09:16:04.771Z,18.67
2023-04-01T09:19:13.410Z,17.70
2023-04-01T09:22:20.847Z,17.30
2023-04-01T09:25:56.415Z,17.95
2023-04-01T09:28:36.472Z,16.38
2023-04-01T09:31:39.493Z,17.85
2023-04-01T09:34:42.527Z,15.98
2023-04-01T09:37:29.653Z,15.90
2023-04-01T09:40:26.492Z,15.73
2023-04-01T09:43:32.576Z,14.65
2023-04-01T09:46:21.600Z,14.38
2023-04-01T09:49:25.254Z,14.73
2023-04-01T09:52:21.081Z,14.15
2023-04-01T09:55:17.680Z,13.77
2023-04-01T09:58:43.480Z,12.75
2023-04-01T10:01:45.271Z,12.60
2023-04-01T10:04:55.805Z,10.55
2023-04-01T10:07:54.847Z,11.70
2023-04-01T10:11:07.260Z,12.27
2023-04-01T10:14:31.400Z,10.77
2023-04-01T10:17:43.745Z,10.48
2023-04-01T10:21:00.465Z,10.25
2023-04-01T10:24:02.432Z,10.77
2023-04-01T10:26:52.815Z,10.52
2023-04-01T10:29:56.526Z,10.75
2023-04-01T10:33:07.189Z,11.18
2023-04-01T10:36:45.047Z,10.80
2023-04-01T10:40:08.420Z,10.90
2023-04-01T10:43:43.960Z,9.60
2023-04-01T10:47:08.358Z,8.85
2023-04-01T10:50:18.646Z,8.60
2023-04-01T10:53:28.722Z,9.18
2023-04-01T10:56:38.650Z,9.02
2023-04-01T11:00:09.857Z,8.65
2023-04-01T11:03:37.753Z,9.27
2023-04-01T11:06:58.193Z,9.90
2023-04-01T11:10:28.460Z,10.23
2023-04-01T11:13:49.987Z,11.35
2023-04-01T11:17:13.942Z,11.00
2023-04-01T11:20:43.952Z,11.63
2023-04-01T11:24:04.319Z,13.32
2023-04-01T11:26:53.360Z,13.48
2023-04-01T11:29:56.997Z,14.60
2023-04-01T11:33:07.397Z,13.82
2023-04-01T11:36:09.159Z,14.15
2023-04-01T11:39:21.995Z,15.65
2023-04-01T11:42:03.674Z,14.88
2023-04-01T11:44:38.163Z,15.55
2023-04-01T11:47:37.636Z,15.98
2023-04-01T11:50:25.248Z,15.98
2023-04-01T11:53:32.222Z,15.43
2023-04-01T11:56:15.509Z,16.48
2023-04-01T11:59:23.681Z,16.27
2023-04-01T12:02:09.459Z,16.55
2023-04-01T12:07:56.880Z,13.52
2023-04-01T12:10:46.186Z,14.07
2023-04-01T12:13:39.451Z,12.35
2023-04-01T12:16:52.767Z,12.80
2023-04-01T12:19:38.036Z,11.32
2023-04-01T12:22:37.016Z,11.82
2023-04-01T12:25:26.396Z,12.32
2023-04-01T12:28:18.739Z,12.02
2023-04-01T12:31:01.429Z,12.27
2023-04-01T12:34:03.224Z,11.52
2023-04-01T12:36:52.609Z,10.43
2023-04-01T12:39:53.574Z,11.15
2023-04-01T12:42:53.311Z,11.32
2023-04-01T12:45:34.889Z,9.90
2023-04-01T12:49:17.348Z,10.05
2023-04-01T12:52:03.498Z,9.05
2023-04-01T12:55:32.681Z,9.38
2023-04-01T12:58:53.714Z,8.00
2023-04-01T13:02:04.411Z,7.55
2023-04-01T13:05:15.138Z,8.00
2023-04-01T13:08:01.209Z,9.00
2023-04-01T13:13:48.664Z,9.30
2023-04-01T13:16:21.911Z,9.65
2023-04-01T13:19:03.624Z,10.45
2023-04-01T13:21:44.959Z,10.07
2023-04-01T13:24:33.006Z,9.35
2023-04-01T13:27:09.605Z,9.68
2023-04-01T13:29:43.022Z,8.63
2023-04-01T13:32:43.361Z,8.52
2023-04-01T13:35:35.067Z,8.18
2023-04-01T13:38:29.529Z,7.70
2023-04-01T13:41:20.531Z,7.43
2023-04-01T13:44:02.183Z,7.43
2023-04-01T13:47:18.797Z,7.05
2023-04-01T13:51:00.403Z,7.32
2023-04-01T13:54:19.903Z,7.20
2023-04-01T13:57:04.948Z,7.30
2023-04-01T14:00:14.126Z,6.95
2023-04-01T14:03:34.735Z,7.13
2023-04-01T14:06:18.893Z,6.78
2023-04-01T14:09:32.096Z,7.35
2023-04-01T14:12:14.148Z,7.00
2023-04-01T14:15:12.632Z,7.22
2023-04-01T14:17:54.661Z,7.37
2023-04-01T14:20:48.628Z,7.45
2023-04-01T14:23:59.944Z,7.38
2023-04-01T14:27:30.013Z,7.22
2023-04-01T14:30:17.173Z,6.72
2023-04-01T14:32:54.742Z,7.20
2023-04-01T14:35:40.524Z,7.43
2023-04-01T14:38:54.983Z,7.82
2023-04-01T14:41:37.721Z,7.30
2023-04-01T14:45:05.859Z,6.70
2023-04-01T14:47:50.728Z,7.05
2023-04-01T14:50:23.740Z,7.63
2023-04-01T14:53:01.487Z,6.72
2023-04-01T14:55:36.827Z,7.05
2023-04-01T14:58:14.924Z,6.90
2023-04-01T15:00:57.017Z,6.38
2023-04-01T15:03:32.313Z,6.47
2023-04-01T15:09:00.783Z,6.07
2023-04-01T15:11:46.087Z,5.68
2023-04-01T15:14:44.483Z,5.88
2023-04-01T15:18:03.499Z,5.60
2023-04-01T15:20:59.285Z,5.82
2023-04-01T15:23:47.224Z,5.53
2023-04-01T15:27:00.691Z,5.30
2023-04-01T15:30:11.619Z,5.90
2023-04-01T15:32:59.556Z,5.28
2023-04-01T15:35:46.779Z,5.05
2023-04-01T15:38:33.311Z,5.25
2023-04-01T15:41:16.801Z,5.47
2023-04-01T15:43:50.208Z,5.28
2023-04-01T15:46:48.986Z,4.93
2023-04-01T15:49:38.600Z,5.43
2023-04-01T15:52:18.624Z,5.68
2023-04-01T15:55:21.528Z,5.13
2023-04-01T15:58:07.746Z,5.25
2023-04-01T16:00:52.421Z,5.35
2023-04-01T16:03:33.300Z,5.30
2023-04-01T16:06:46.174Z,5.15
2023-04-01T16:09:44.392Z,5.20
2023-04-01T16:12:22.956Z,4.75
2023-04-01T16:15:09.653Z,4.13
2023-04-01T16:18:41.135Z,3.83
2023-04-01T16:21:16.478Z,3.03
2023-04-01T16:26:28.906Z,2.75
2023-04-01T16:29:09.085Z,2.25
2023-04-01T16:31:46.738Z,2.30
2023-04-01T16:34:23.544Z,2.30
2023-04-01T16:36:58.050Z,2.25
2023-04-01T16:39:41.853Z,2.47
2023-04-01T16:42:37.418Z,2.30
2023-04-01T16:45:27.485Z,2.88
2023-04-01T16:48:00.521Z,2.50
2023-04-01T16:50:53.757Z,3.60
2023-04-01T16:53:37.024Z,3.00
2023-04-01T16:56:19.297Z,3.03
2023-04-01T16:59:04.623Z,2.78
2023-04-01T17:01:45.942Z,3.08
2023-04-01T17:04:28.001Z,2.97
2023-04-01T17:07:12.608Z,2.80
2023-04-01T17:10:20.598Z,3.03
2023-04-01T17:13:04.140Z,3.10
2023-04-01T17:15:44.759Z,2.67
2023-04-01T17:18:22.540Z,3.13
2023-04-01T17:20:58.966Z,2.90
2023-04-01T17:23:34.762Z,2.95
2023-04-01T17:26:33.362Z,2.85
2023-04-01T17:29:13.061Z,2.75
2023-04-01T17:31:51.670Z,2.92
2023-04-01T17:34:48.956Z,3.45
2023-04-01T17:37:37.538Z,4.25
2023-04-01T17:40:33.466Z,3.78
2023-04-01T17:43:12.627Z,3.58
2023-04-01T17:45:52.006Z,3.15
2023-04-01T17:48:35.946Z,3.15
2023-04-01T17:51:25.610Z,3.47
2023-04-01T17:54:07.650Z,3.50
2023-04-01T17:56:51.664Z,4.00
2023-04-01T17:59:34.468Z,3.92
2023-04-01T18:02:19.265Z,3.70
2023-04-01T18:05:19.029Z,3.47
2023-04-01T18:08:12.045Z,3.78
2023-04-01T18:10:54.871Z,3.92
2023-04-01T18:14:14.466Z,4.30
2023-04-01T18:17:01.694Z,4.32
2023-04-01T18:19:45.586Z,4.25
2023-04-01T18:22:24.320Z,5.53
2023-04-01T18:25:04.041Z,6.93
2023-04-01T18:27:38.795Z,5.47
2023-04-01T18:30:20.535Z,5.93
2023-04-01T18:32:55.588Z,5.45
2023-04-01T18:35:36.693Z,5.90
2023-04-01T18:38:14.813Z,6.03
2023-04-01T18:40:52.411Z,5.93
2023-04-01T18:43:39.790Z,6.55
2023-04-01T18:46:27.622Z,6.13
2023-04-01T18:49:16.066Z,6.35
2023-04-01T18:51:57.145Z,6.30
2023-04-01T18:54:33.433Z,6.28
2023-04-01T18:57:09.948Z,6.68
2023-04-01T18:59:44.875Z,6.88
2023-04-01T19:02:40.693Z,6.90
2023-04-01T19:05:22.199Z,6.90
2023-04-01T19:07:56.185Z,7.35
2023-04-01T19:10:40.160Z,6.95
2023-04-01T19:13:22.644Z,6.78
2023-04-01T19:16:03.670Z,6.88
2023-04-01T19:19:00.824Z,6.70
2023-04-01T19:21:50.082Z,7.53
2023-04-01T19:24:54.369Z,6.85
2023-04-01T19:27:36.279Z,6.43
2023-04-01T19:30:35.419Z,6.85
2023-04-01T19:33:33.386Z,7.22
2023-04-01T19:36:17.272Z,7.72
2023-04-01T19:39:10.058Z,7.07
2023-04-01T19:41:48.974Z,7.93
2023-04-01T19:44:40.241Z,7.78
2023-04-01T19:47:22.783Z,7.97
2023-04-01T19:50:11.973Z,7.88
2023-04-01T19:52:56.364Z,7.78
2023-04-01T19:56:16.875Z,7.50
2023-04-01T19:59:00.992Z,7.63
2023-04-01T20:01:45.668Z,7.25
2023-04-01T20:04:25.759Z,7.30
2023-04-01T20:07:00.291Z,7.03
2023-04-01T20:10:00.482Z,7.05
2023-04-01T20:12:51.295Z,7.20
2023-04-01T20:15:34.082Z,6.95
2023-04-01T20:18:09.826Z,7.88
2023-04-01T20:20:40.860Z,7.78
2023-04-01T20:23:34.434Z,6.82
2023-04-01T20:26:11.106Z,7.05
2023-04-01T20:28:54.215Z,7.10
2023-04-01T20:31:33.772Z,6.65
2023-04-01T20:37:48.728Z,6.18
2023-04-01T20:40:36.732Z,6.45
2023-04-01T20:43:50.914Z,6.47
2023-04-01T20:46:44.584Z,6.40
2023-04-01T20:49:49.704Z,6.63
2023-04-01T20:52:39.955Z,6.80
2023-04-01T20:55:33.296Z,7.50
2023-04-01T20:58:15.522Z,7.07
2023-04-01T21:01:00.086Z,6.80
2023-04-01T21:03:46.477Z,7.40
2023-04-01T21:06:57.673Z,6.72
2023-04-01T21:09:57.719Z,6.53
2023-04-01T21:12:38.522Z,6.78
2023-04-01T21:15:32.547Z,6.95
2023-04-01T21:18:20.173Z,7.95
2023-04-01T21:21:18.340Z,8.25
2023-04-01T21:24:05.051Z,8.00
2023-04-01T21:26:51.712Z,8.65
2023-04-01T21:29:53.924Z,8.80
2023-04-01T21:32:44.344Z,8.65
2023-04-01T21:35:33.067Z,8.05
2023-04-01T21:38:16.331Z,8.35
2023-04-01T21:41:26.718Z,8.60
2023-04-01T21:44:36.638Z,8.57
2023-04-01T21:48:09.130Z,8.30
2023-04-01T21:51:31.119Z,7.68
2023-04-01T21:54:24.264Z,8.10
2023-04-01T21:57:48.676Z,8.88
2023-04-01T22:00:23.384Z,9.73
2023-04-01T22:03:41.591Z,9.60
2023-04-01T22:06:24.817Z,9.32
2023-04-01T22:09:12.771Z,9.50
2023-04-01T22:11:54.667Z,9.02
2023-04-01T22:14:32.675Z,8.95
2023-04-01T22:17:05.767Z,9.43
2023-04-01T22:19:47.843Z,9.70
2023-04-01T22:22:24.865Z,10.15
2023-04-01T22:25:08.479Z,9.15
2023-04-01T22:27:48.012Z,9.82
2023-04-01T22:30:24.900Z,9.60
2023-04-01T22:33:01.977Z,10.52
2023-04-01T22:35:42.708Z,10.30
2023-04-01T22:38:29.430Z,9.65
2023-04-01T22:41:10.260Z,9.85
2023-04-01T22:43:42.616Z,11.10
2023-04-01T22:47:00.465Z,9.88
2023-04-01T22:49:40.156Z,9.73
2023-04-01T22:52:21.474Z,10.35
2023-04-01T22:54:59.079Z,9.88
2023-04-01T22:57:43.846Z,10.90
2023-04-01T23:00:21.415Z,11.18
2023-04-01T23:03:06.991Z,10.90
2023-04-01T23:05:50.925Z,11.07
2023-04-01T23:09:06.042Z,11.70
2023-04-01T23:11:45.531Z,11.82
2023-04-01T23:14:49.077Z,12.05
2023-04-01T23:17:42.337Z,11.82
2023-04-01T23:20:44.916Z,12.15
2023-04-01T23:23:28.854Z,11.90
2023-04-01T23:26:07.868Z,11.48
2023-04-01T23:28:49.446Z,11.68
2023-04-01T23:31:38.048Z,11.80
2023-04-01T23:34:30.248Z,10.73
2023-04-01T23:37:04.258Z,11.82
2023-04-01T23:39:36.842Z,11.23
2023-04-01T23:42:10.628Z,11.48
2023-04-01T23:44:41.465Z,11.13
2023-04-01T23:47:20.029Z,11.32
2023-04-01T23:49:52.974Z,10.43
2023-04-01T23:52:26.478Z,11.43
2023-04-01T23:55:00.943Z,10.82
2023-04-01T23:57:34.888Z,11.65
